Virgo Phoenix — 3FMO8 — position and weather

sailwx.info

Track history (hours):
 
Tides and Currents Weather Stations Pressure Air Temp Water Temp Dewpoint Dewpoint Depression Visibility Wind Speed Wind Dir Waves Ship Positions

Virgo Phoenix

Last reported at 2017-Oct-16 11:35 UTC. Time now 2017-Oct-19 20:19 UTC.
Position N 34°58' E 139°30'.

Length 96 m; draft 6.3 m.

Type: Tanker. MMSI: 370795000.

Date/timePositionNaut miles runAvg speedWind from/ knotsBaromVisibWave heightAir tempDewpointWater temp
2017-Oct-16 11:35N 34°58' E 139°30'212.9
2017-Oct-16 11:27N 34°59' E 139°32'612.9
2017-Oct-16 11:00N 35°02' E 139°38'612.6
2017-Oct-16 10:30N 35°06' E 139°43'612.7
2017-Oct-16 10:00N 35°12' E 139°46'612.5
2017-Oct-16 09:30N 35°18' E 139°44'713.1
2017-Oct-16 09:00N 35°25' E 139°43'815.0
2017-Oct-16 08:30N 35°29' E 139°51'6 0.1
2017-Oct-14 09:39N 35°32' E 139°57'2 0.3
2017-Oct-14 01:49N 35°33' E 140°00'513.4
2017-Oct-14 01:27N 35°31' E 139°55'713.3
2017-Oct-14 00:56N 35°26' E 139°48'613.3
2017-Oct-14 00:30N 35°21' E 139°45'611.9
2017-Oct-14 00:00N 35°16' E 139°47'813.2
2017-Oct-13 23:22N 35°07' E 139°45'513.1
2017-Oct-13 23:00N 35°03' E 139°42'714.2
2017-Oct-13 22:30N 34°59' E 139°34'233 6.4
2017-Oct-12 09:58N 34°06' E 134°59'715.1
2017-Oct-12 09:29N 34°14' E 134°58'1514.5
2017-Oct-12 08:27N 34°28' E 135°03'714.9
2017-Oct-12 08:00N 34°34' E 135°07'5 7.6
2017-Oct-12 07:20N 34°39' E 135°09'0 0.0
2017-Oct-12 06:56N 34°39' E 135°09'0 0.0
2017-Oct-12 06:20N 34°39' E 135°09'0 0.0
2017-Oct-12 05:56N 34°39' E 135°09'0 0.0
2017-Oct-12 03:32N 34°39' E 135°09'0 0.0
2017-Oct-12 03:08N 34°39' E 135°09'0 0.0
2017-Oct-12 02:50N 34°39' E 135°09'0 0.0
2017-Oct-12 02:08N 34°39' E 135°09'0 0.0
2017-Oct-12 01:50N 34°39' E 135°09'0 0.0
2017-Oct-12 01:26N 34°39' E 135°09'0 0.0
2017-Oct-12 00:56N 34°39' E 135°09'0 0.0
2017-Oct-12 00:20N 34°39' E 135°09'0 0.0
2017-Oct-12 00:00N 34°39' E 135°09'1 1.2
2017-Oct-11 23:30N 34°38' E 135°10'0 0.1
2017-Oct-11 22:48N 34°38' E 135°10'0 0.2
2017-Oct-11 22:30N 34°38' E 135°10'0 0.1
2017-Oct-11 22:00N 34°38' E 135°10'0 0.0
2017-Oct-11 21:30N 34°38' E 135°10'0 0.0
2017-Oct-11 21:00N 34°38' E 135°10'0 0.0
2017-Oct-11 20:30N 34°38' E 135°10'0 0.0
2017-Oct-11 20:00N 34°38' E 135°10'0 0.0
2017-Oct-11 19:30N 34°38' E 135°10'0 0.0
2017-Oct-11 19:00N 34°38' E 135°10'0 0.1
2017-Oct-11 18:12N 34°38' E 135°10'0 0.2
2017-Oct-11 18:00N 34°38' E 135°10'0 0.0
2017-Oct-11 17:30N 34°38' E 135°10'0 0.0
2017-Oct-11 16:54N 34°38' E 135°10'  
Track history (hours):
 
Tides and Currents Weather Stations Pressure Air Temp Water Temp Dewpoint Dewpoint Depression Visibility Wind Speed Wind Dir Waves Ship Positions

Virgo Phoenix

Last reported at 2017-Oct-16 11:35 UTC. Time now 2017-Oct-19 20:19 UTC.
Position N 34°58' E 139°30'.

Length 96 m; draft 6.3 m.

Type: Tanker. MMSI: 370795000.

Date/timePositionNaut miles runAvg speedWind from/ knotsBaromVisibWave heightAir tempDewpointWater temp
2017-Oct-16 11:35N 34°58' E 139°30'212.9
2017-Oct-16 11:27N 34°59' E 139°32'612.9
2017-Oct-16 11:00N 35°02' E 139°38'612.6
2017-Oct-16 10:30N 35°06' E 139°43'612.7
2017-Oct-16 10:00N 35°12' E 139°46'612.5
2017-Oct-16 09:30N 35°18' E 139°44'713.1
2017-Oct-16 09:00N 35°25' E 139°43'815.0
2017-Oct-16 08:30N 35°29' E 139°51'6 0.1
2017-Oct-14 09:39N 35°32' E 139°57'2 0.3
2017-Oct-14 01:49N 35°33' E 140°00'513.4
2017-Oct-14 01:27N 35°31' E 139°55'713.3
2017-Oct-14 00:56N 35°26' E 139°48'613.3
2017-Oct-14 00:30N 35°21' E 139°45'611.9
2017-Oct-14 00:00N 35°16' E 139°47'813.2
2017-Oct-13 23:22N 35°07' E 139°45'513.1
2017-Oct-13 23:00N 35°03' E 139°42'714.2
2017-Oct-13 22:30N 34°59' E 139°34'233 6.4
2017-Oct-12 09:58N 34°06' E 134°59'715.1
2017-Oct-12 09:29N 34°14' E 134°58'1514.5
2017-Oct-12 08:27N 34°28' E 135°03'714.9
2017-Oct-12 08:00N 34°34' E 135°07'5 7.6
2017-Oct-12 07:20N 34°39' E 135°09'0 0.0
2017-Oct-12 06:56N 34°39' E 135°09'0 0.0
2017-Oct-12 06:20N 34°39' E 135°09'0 0.0
2017-Oct-12 05:56N 34°39' E 135°09'0 0.0
2017-Oct-12 03:32N 34°39' E 135°09'0 0.0
2017-Oct-12 03:08N 34°39' E 135°09'0 0.0
2017-Oct-12 02:50N 34°39' E 135°09'0 0.0
2017-Oct-12 02:08N 34°39' E 135°09'0 0.0
2017-Oct-12 01:50N 34°39' E 135°09'0 0.0
2017-Oct-12 01:26N 34°39' E 135°09'0 0.0
2017-Oct-12 00:56N 34°39' E 135°09'0 0.0
2017-Oct-12 00:20N 34°39' E 135°09'0 0.0
2017-Oct-12 00:00N 34°39' E 135°09'1 1.2
2017-Oct-11 23:30N 34°38' E 135°10'0 0.1
2017-Oct-11 22:48N 34°38' E 135°10'0 0.2
2017-Oct-11 22:30N 34°38' E 135°10'0 0.1
2017-Oct-11 22:00N 34°38' E 135°10'0 0.0
2017-Oct-11 21:30N 34°38' E 135°10'0 0.0
2017-Oct-11 21:00N 34°38' E 135°10'0 0.0
2017-Oct-11 20:30N 34°38' E 135°10'0 0.0
2017-Oct-11 20:00N 34°38' E 135°10'0 0.0
2017-Oct-11 19:30N 34°38' E 135°10'0 0.0
2017-Oct-11 19:00N 34°38' E 135°10'0 0.1
2017-Oct-11 18:12N 34°38' E 135°10'0 0.2
2017-Oct-11 18:00N 34°38' E 135°10'0 0.0
2017-Oct-11 17:30N 34°38' E 135°10'0 0.0
2017-Oct-11 16:54N 34°38' E 135°10'  

Dump ship's entire track history